Terminal Aerodrome Forecast
Issued by NWS Twin Cities, MN

Home | Current Version | Previous Version | Text Only | Print | Product List | Glossary Off
Versions: 1 2 3 4 5 6 7 8 9 10 11 12 13 14 15 16 17 18 19 20 21 22 23 24 25 26 27 28 29 30 31 32 33 34

000
FTUS43 KMPX 031922 AAA
TAFMSP
TAF AMD
KMSP 031922Z 0319/0424 17006KT P6SM SCT025
     FM032220 14008KT P6SM SCT040 BKN100
     FM040400 14008KT 5SM -SN OVC030
     FM040600 14008KT 2SM -SN OVC012
     FM041200 14008KT 5SM -SN OVC015
     FM041700 19008KT P6SM OVC018=

USA.gov is the U.S. government's official web portal to all federal, state and local government web resources and services.